sensor_id;sensor_type;location;lat;lon;timestamp;pressure;altitude;pressure_sealevel;temperature;humidity
50430;BME280;36359;41.556;-8.418;2023-10-13T00:01:58;100213.09;;;22.42;51.74
50430;BME280;36359;41.556;-8.418;2023-10-13T00:04:33;100230.06;;;22.64;52.65
50430;BME280;36359;41.556;-8.418;2023-10-13T00:07:02;100233.53;;;22.60;51.65
50430;BME280;36359;41.556;-8.418;2023-10-13T00:09:30;100227.00;;;22.54;53.23
50430;BME280;36359;41.556;-8.418;2023-10-13T00:11:59;100240.97;;;22.78;52.81
50430;BME280;36359;41.556;-8.418;2023-10-13T00:14:25;100226.97;;;22.73;51.74
50430;BME280;36359;41.556;-8.418;2023-10-13T00:17:02;100210.09;;;22.44;52.90
50430;BME280;36359;41.556;-8.418;2023-10-13T00:19:32;100217.38;;;22.75;53.58
50430;BME280;36359;41.556;-8.418;2023-10-13T00:22:06;100219.00;;;22.83;51.79
50430;BME280;36359;41.556;-8.418;2023-10-13T00:24:39;100216.06;;;22.78;54.01
50430;BME280;36359;41.556;-8.418;2023-10-13T00:27:10;100212.25;;;22.60;52.82
50430;BME280;36359;41.556;-8.418;2023-10-13T00:29:51;100223.16;;;22.55;52.21
50430;BME280;36359;41.556;-8.418;2023-10-13T00:32:16;100213.47;;;22.46;52.30
50430;BME280;36359;41.556;-8.418;2023-10-13T00:34:45;100209.78;;;22.34;52.17
50430;BME280;36359;41.556;-8.418;2023-10-13T00:37:11;100224.38;;;22.41;52.85
50430;BME280;36359;41.556;-8.418;2023-10-13T00:39:52;100236.59;;;22.33;52.55
50430;BME280;36359;41.556;-8.418;2023-10-13T00:42:22;100233.38;;;22.36;54.94
50430;BME280;36359;41.556;-8.418;2023-10-13T00:45:12;100224.72;;;22.33;52.29
50430;BME280;36359;41.556;-8.418;2023-10-13T00:47:42;100227.38;;;22.21;52.71
50430;BME280;36359;41.556;-8.418;2023-10-13T00:50:23;100233.81;;;22.52;53.26
50430;BME280;36359;41.556;-8.418;2023-10-13T00:52:49;100229.06;;;22.59;53.30
50430;BME280;36359;41.556;-8.418;2023-10-13T00:55:18;100229.06;;;22.40;53.24
50430;BME280;36359;41.556;-8.418;2023-10-13T00:57:45;100229.59;;;22.06;54.60
50430;BME280;36359;41.556;-8.418;2023-10-13T01:00:12;100230.81;;;22.35;54.30
50430;BME280;36359;41.556;-8.418;2023-10-13T01:02:58;100220.31;;;22.43;54.89
50430;BME280;36359;41.556;-8.418;2023-10-13T01:05:32;100228.75;;;22.30;55.02
50430;BME280;36359;41.556;-8.418;2023-10-13T01:08:02;100219.69;;;22.23;55.07
50430;BME280;36359;41.556;-8.418;2023-10-13T01:10:29;100222.06;;;22.38;55.39
50430;BME280;36359;41.556;-8.418;2023-10-13T01:12:58;100212.94;;;22.19;55.71
50430;BME280;36359;41.556;-8.418;2023-10-13T01:15:28;100210.28;;;22.06;56.85
50430;BME280;36359;41.556;-8.418;2023-10-13T01:18:09;100210.28;;;22.06;56.78
50430;BME280;36359;41.556;-8.418;2023-10-13T01:20:39;100211.72;;;22.08;57.44
50430;BME280;36359;41.556;-8.418;2023-10-13T01:23:13;100213.03;;;22.06;56.00
50430;BME280;36359;41.556;-8.418;2023-10-13T01:25:47;100213.28;;;21.79;56.45
50430;BME280;36359;41.556;-8.418;2023-10-13T01:28:14;100202.25;;;21.79;55.19
50430;BME280;36359;41.556;-8.418;2023-10-13T01:30:45;100204.09;;;21.85;54.78
50430;BME280;36359;41.556;-8.418;2023-10-13T01:33:16;100208.78;;;21.85;54.86
50430;BME280;36359;41.556;-8.418;2023-10-13T01:35:42;100218.06;;;21.90;54.46
50430;BME280;36359;41.556;-8.418;2023-10-13T01:38:15;100213.03;;;22.06;53.65
50430;BME280;36359;41.556;-8.418;2023-10-13T01:40:41;100222.56;;;22.10;53.01
50430;BME280;36359;41.556;-8.418;2023-10-13T01:43:08;100211.44;;;22.41;56.57
50430;BME280;36359;41.556;-8.418;2023-10-13T01:45:37;100200.19;;;22.55;55.17
50430;BME280;36359;41.556;-8.418;2023-10-13T01:48:23;100187.28;;;22.49;54.01
50430;BME280;36359;41.556;-8.418;2023-10-13T01:50:49;100188.06;;;22.37;53.10
50430;BME280;36359;41.556;-8.418;2023-10-13T01:53:21;100192.47;;;22.27;53.42
50430;BME280;36359;41.556;-8.418;2023-10-13T01:55:48;100181.47;;;22.38;53.93
50430;BME280;36359;41.556;-8.418;2023-10-13T01:58:16;100181.06;;;22.35;52.93
50430;BME280;36359;41.556;-8.418;2023-10-13T02:00:42;100174.69;;;22.16;54.01
50430;BME280;36359;41.556;-8.418;2023-10-13T02:03:10;100167.53;;;22.08;52.42
50430;BME280;36359;41.556;-8.418;2023-10-13T02:05:46;100154.16;;;22.30;53.22
50430;BME280;36359;41.556;-8.418;2023-10-13T02:08:22;100143.78;;;22.26;52.61
50430;BME280;36359;41.556;-8.418;2023-10-13T02:10:51;100132.19;;;22.17;52.27
50430;BME280;36359;41.556;-8.418;2023-10-13T02:13:19;100135.00;;;21.92;54.01
50430;BME280;36359;41.556;-8.418;2023-10-13T02:15:46;100137.50;;;22.12;54.52
50430;BME280;36359;41.556;-8.418;2023-10-13T02:18:15;100142.31;;;22.23;53.91
50430;BME280;36359;41.556;-8.418;2023-10-13T02:21:03;100140.75;;;22.45;56.22
50430;BME280;36359;41.556;-8.418;2023-10-13T02:23:41;100125.69;;;22.60;53.52
50430;BME280;36359;41.556;-8.418;2023-10-13T02:26:12;100118.19;;;22.79;53.34
50430;BME280;36359;41.556;-8.418;2023-10-13T02:28:40;100124.94;;;22.83;52.40
50430;BME280;36359;41.556;-8.418;2023-10-13T02:31:06;100138.63;;;22.78;53.35
50430;BME280;36359;41.556;-8.418;2023-10-13T02:33:33;100135.06;;;22.89;53.46
50430;BME280;36359;41.556;-8.418;2023-10-13T02:36:04;100132.84;;;22.98;53.21
50430;BME280;36359;41.556;-8.418;2023-10-13T02:38:33;100134.50;;;22.99;54.59
50430;BME280;36359;41.556;-8.418;2023-10-13T02:41:19;100127.81;;;23.06;53.51
50430;BME280;36359;41.556;-8.418;2023-10-13T02:43:55;100135.00;;;22.96;52.51
50430;BME280;36359;41.556;-8.418;2023-10-13T02:46:23;100125.78;;;22.83;54.09
50430;BME280;36359;41.556;-8.418;2023-10-13T02:48:49;100124.53;;;22.79;53.79
50430;BME280;36359;41.556;-8.418;2023-10-13T02:51:23;100125.22;;;22.63;54.79
50430;BME280;36359;41.556;-8.418;2023-10-13T02:54:01;100118.00;;;22.62;54.48
50430;BME280;36359;41.556;-8.418;2023-10-13T02:56:36;100111.13;;;22.83;54.55
50430;BME280;36359;41.556;-8.418;2023-10-13T02:59:02;100108.59;;;22.93;54.77
50430;BME280;36359;41.556;-8.418;2023-10-13T03:01:35;100093.16;;;23.04;54.63
50430;BME280;36359;41.556;-8.418;2023-10-13T03:04:03;100091.72;;;23.13;55.79
50430;BME280;36359;41.556;-8.418;2023-10-13T03:06:29;100073.06;;;23.08;55.01
50430;BME280;36359;41.556;-8.418;2023-10-13T03:09:00;100074.13;;;22.96;55.96
50430;BME280;36359;41.556;-8.418;2023-10-13T03:11:49;100067.19;;;22.75;56.84
50430;BME280;36359;41.556;-8.418;2023-10-13T03:14:16;100064.56;;;22.80;56.78
50430;BME280;36359;41.556;-8.418;2023-10-13T03:17:01;100056.00;;;22.81;57.86
50430;BME280;36359;41.556;-8.418;2023-10-13T03:19:32;100056.81;;;23.00;58.16
50430;BME280;36359;41.556;-8.418;2023-10-13T03:22:03;100056.28;;;22.92;60.04
50430;BME280;36359;41.556;-8.418;2023-10-13T03:24:39;100062.31;;;22.88;62.15
50430;BME280;36359;41.556;-8.418;2023-10-13T03:27:19;100062.00;;;22.66;63.86
50430;BME280;36359;41.556;-8.418;2023-10-13T03:30:05;100064.75;;;22.66;64.82
50430;BME280;36359;41.556;-8.418;2023-10-13T03:32:36;100064.50;;;22.56;62.29
50430;BME280;36359;41.556;-8.418;2023-10-13T03:35:09;100061.69;;;22.26;62.26
50430;BME280;36359;41.556;-8.418;2023-10-13T03:37:53;100056.09;;;22.14;63.05
50430;BME280;36359;41.556;-8.418;2023-10-13T03:40:19;100055.72;;;22.11;62.72
50430;BME280;36359;41.556;-8.418;2023-10-13T03:42:48;100049.91;;;22.19;62.05
50430;BME280;36359;41.556;-8.418;2023-10-13T03:45:24;100054.03;;;22.10;62.34
50430;BME280;36359;41.556;-8.418;2023-10-13T03:47:51;100043.97;;;21.97;63.26
50430;BME280;36359;41.556;-8.418;2023-10-13T03:50:20;100042.94;;;21.98;62.47
50430;BME280;36359;41.556;-8.418;2023-10-13T03:52:56;100055.38;;;21.89;61.16
50430;BME280;36359;41.556;-8.418;2023-10-13T03:55:24;100043.78;;;21.80;60.44
50430;BME280;36359;41.556;-8.418;2023-10-13T03:57:55;100038.78;;;21.70;60.32
50430;BME280;36359;41.556;-8.418;2023-10-13T04:00:22;100042.88;;;21.68;60.14
50430;BME280;36359;41.556;-8.418;2023-10-13T04:02:52;100048.97;;;21.51;60.17
50430;BME280;36359;41.556;-8.418;2023-10-13T04:05:38;100050.06;;;21.69;59.53
50430;BME280;36359;41.556;-8.418;2023-10-13T04:08:05;100051.06;;;21.74;59.47
50430;BME280;36359;41.556;-8.418;2023-10-13T04:10:51;100053.91;;;21.86;59.51
50430;BME280;36359;41.556;-8.418;2023-10-13T04:13:16;100044.44;;;21.94;57.74
50430;BME280;36359;41.556;-8.418;2023-10-13T04:16:01;100051.88;;;22.12;58.42
50430;BME280;36359;41.556;-8.418;2023-10-13T04:18:45;100047.97;;;22.01;58.03
50430;BME280;36359;41.556;-8.418;2023-10-13T04:21:23;100053.28;;;21.84;58.01
50430;BME280;36359;41.556;-8.418;2023-10-13T04:24:12;100054.56;;;22.00;58.21
50430;BME280;36359;41.556;-8.418;2023-10-13T04:26:51;100052.19;;;21.85;58.89
50430;BME280;36359;41.556;-8.418;2023-10-13T04:29:36;100051.31;;;21.91;59.12
50430;BME280;36359;41.556;-8.418;2023-10-13T04:32:16;100052.97;;;21.92;57.95
50430;BME280;36359;41.556;-8.418;2023-10-13T04:35:02;100046.84;;;21.72;59.29
50430;BME280;36359;41.556;-8.418;2023-10-13T04:37:36;100052.00;;;21.68;59.87
50430;BME280;36359;41.556;-8.418;2023-10-13T04:40:26;100054.72;;;21.50;60.58
50430;BME280;36359;41.556;-8.418;2023-10-13T04:43:00;100066.00;;;21.48;60.11
50430;BME280;36359;41.556;-8.418;2023-10-13T04:45:49;100055.97;;;21.54;60.31
50430;BME280;36359;41.556;-8.418;2023-10-13T04:48:21;100065.84;;;21.62;60.88
50430;BME280;36359;41.556;-8.418;2023-10-13T04:50:47;100066.44;;;21.45;61.58
50430;BME280;36359;41.556;-8.418;2023-10-13T04:53:18;100070.47;;;21.68;61.51
50430;BME280;36359;41.556;-8.418;2023-10-13T04:56:07;100069.97;;;21.52;61.16
50430;BME280;36359;41.556;-8.418;2023-10-13T04:58:52;100067.53;;;21.44;61.49
50430;BME280;36359;41.556;-8.418;2023-10-13T05:01:36;100072.16;;;21.87;61.53
50430;BME280;36359;41.556;-8.418;2023-10-13T05:04:25;100088.94;;;21.67;60.26
50430;BME280;36359;41.556;-8.418;2023-10-13T05:07:05;100095.25;;;21.74;60.00
50430;BME280;36359;41.556;-8.418;2023-10-13T05:09:49;100093.91;;;21.59;59.80
50430;BME280;36359;41.556;-8.418;2023-10-13T05:12:34;100098.03;;;21.24;63.10
50430;BME280;36359;41.556;-8.418;2023-10-13T05:15:19;100102.09;;;21.22;63.55
50430;BME280;36359;41.556;-8.418;2023-10-13T05:18:04;100101.28;;;21.15;63.84
50430;BME280;36359;41.556;-8.418;2023-10-13T05:20:48;100111.59;;;21.26;64.95
50430;BME280;36359;41.556;-8.418;2023-10-13T05:23:33;100111.25;;;21.47;65.70
50430;BME280;36359;41.556;-8.418;2023-10-13T05:26:17;100109.53;;;21.46;66.96
50430;BME280;36359;41.556;-8.418;2023-10-13T05:29:01;100115.78;;;21.60;65.04
50430;BME280;36359;41.556;-8.418;2023-10-13T05:31:46;100119.94;;;21.69;65.44
50430;BME280;36359;41.556;-8.418;2023-10-13T05:34:30;100127.03;;;21.59;67.49
50430;BME280;36359;41.556;-8.418;2023-10-13T05:37:15;100113.94;;;21.54;69.09
50430;BME280;36359;41.556;-8.418;2023-10-13T05:39:59;100124.31;;;21.02;71.51
50430;BME280;36359;41.556;-8.418;2023-10-13T05:42:44;100132.97;;;21.05;72.49
50430;BME280;36359;41.556;-8.418;2023-10-13T05:45:28;100133.59;;;21.39;72.10
50430;BME280;36359;41.556;-8.418;2023-10-13T05:48:23;100135.84;;;21.49;72.54
50430;BME280;36359;41.556;-8.418;2023-10-13T05:51:07;100137.13;;;21.46;74.99
50430;BME280;36359;41.556;-8.418;2023-10-13T05:53:52;100133.31;;;21.47;72.99
50430;BME280;36359;41.556;-8.418;2023-10-13T05:56:36;100136.84;;;21.54;73.64
50430;BME280;36359;41.556;-8.418;2023-10-13T05:59:20;100142.25;;;21.68;72.26
50430;BME280;36359;41.556;-8.418;2023-10-13T06:02:05;100152.06;;;21.64;73.00
50430;BME280;36359;41.556;-8.418;2023-10-13T06:05:11;100146.88;;;21.49;74.36
50430;BME280;36359;41.556;-8.418;2023-10-13T06:07:57;100149.00;;;21.72;68.67
50430;BME280;36359;41.556;-8.418;2023-10-13T06:10:42;100159.94;;;22.04;70.67
50430;BME280;36359;41.556;-8.418;2023-10-13T06:13:28;100167.50;;;21.71;73.81
50430;BME280;36359;41.556;-8.418;2023-10-13T06:16:15;100183.22;;;21.71;71.29
50430;BME280;36359;41.556;-8.418;2023-10-13T06:19:00;100184.34;;;21.31;75.55
50430;BME280;36359;41.556;-8.418;2023-10-13T06:21:45;100174.16;;;21.39;74.11
50430;BME280;36359;41.556;-8.418;2023-10-13T06:24:30;100183.31;;;21.26;75.13
50430;BME280;36359;41.556;-8.418;2023-10-13T06:27:15;100199.28;;;21.24;76.23
50430;BME280;36359;41.556;-8.418;2023-10-13T06:30:00;100209.31;;;20.80;77.68
50430;BME280;36359;41.556;-8.418;2023-10-13T06:32:30;100216.19;;;20.51;76.54
50430;BME280;36359;41.556;-8.418;2023-10-13T06:34:56;100219.03;;;20.11;79.21
50430;BME280;36359;41.556;-8.418;2023-10-13T06:37:44;100216.19;;;20.57;77.86
50430;BME280;36359;41.556;-8.418;2023-10-13T06:40:12;100225.41;;;20.83;75.81
50430;BME280;36359;41.556;-8.418;2023-10-13T06:42:46;100223.19;;;20.98;75.34
50430;BME280;36359;41.556;-8.418;2023-10-13T06:45:12;100216.69;;;21.24;73.77
50430;BME280;36359;41.556;-8.418;2023-10-13T06:47:38;100219.03;;;21.52;72.01
50430;BME280;36359;41.556;-8.418;2023-10-13T06:50:11;100242.84;;;21.53;73.39
50430;BME280;36359;41.556;-8.418;2023-10-13T06:52:47;100235.25;;;21.42;72.74
50430;BME280;36359;41.556;-8.418;2023-10-13T06:55:13;100235.25;;;21.42;74.04
50430;BME280;36359;41.556;-8.418;2023-10-13T06:58:08;100236.66;;;21.76;69.09
50430;BME280;36359;41.556;-8.418;2023-10-13T07:00:40;100230.31;;;21.76;71.13
50430;BME280;36359;41.556;-8.418;2023-10-13T07:03:07;100228.50;;;21.63;73.25
50430;BME280;36359;41.556;-8.418;2023-10-13T07:05:38;100233.47;;;21.54;75.63
50430;BME280;36359;41.556;-8.418;2023-10-13T07:08:08;100236.16;;;21.29;78.65
50430;BME280;36359;41.556;-8.418;2023-10-13T07:10:34;100244.84;;;21.40;79.07
50430;BME280;36359;41.556;-8.418;2023-10-13T07:13:19;100233.53;;;21.48;77.83
50430;BME280;36359;41.556;-8.418;2023-10-13T07:15:47;100234.44;;;21.67;76.25
50430;BME280;36359;41.556;-8.418;2023-10-13T07:18:16;100246.09;;;21.69;80.31
50430;BME280;36359;41.556;-8.418;2023-10-13T07:20:43;100234.59;;;21.72;80.65
50430;BME280;36359;41.556;-8.418;2023-10-13T07:23:13;100237.81;;;21.69;81.09
50430;BME280;36359;41.556;-8.418;2023-10-13T07:25:53;100232.13;;;21.64;82.23
50430;BME280;36359;41.556;-8.418;2023-10-13T07:28:32;100238.91;;;21.68;80.20
50430;BME280;36359;41.556;-8.418;2023-10-13T07:31:18;100246.63;;;21.52;84.15
50430;BME280;36359;41.556;-8.418;2023-10-13T07:33:47;100251.38;;;21.45;84.24
50430;BME280;36359;41.556;-8.418;2023-10-13T07:36:13;100250.47;;;21.51;84.83
50430;BME280;36359;41.556;-8.418;2023-10-13T07:38:42;100265.78;;;22.48;69.28
50430;BME280;36359;41.556;-8.418;2023-10-13T07:41:09;100278.16;;;23.30;65.39
50430;BME280;36359;41.556;-8.418;2023-10-13T07:43:35;100291.72;;;23.50;66.13
50430;BME280;36359;41.556;-8.418;2023-10-13T07:46:05;100284.59;;;23.43;68.90
50430;BME280;36359;41.556;-8.418;2023-10-13T07:48:41;100287.69;;;23.34;71.90
50430;BME280;36359;41.556;-8.418;2023-10-13T07:51:11;100297.09;;;23.33;73.46
50430;BME280;36359;41.556;-8.418;2023-10-13T07:56:09;100281.63;;;23.56;71.28
50430;BME280;36359;41.556;-8.418;2023-10-13T07:58:40;100283.69;;;23.61;68.99
50430;BME280;36359;41.556;-8.418;2023-10-13T08:01:21;100289.91;;;23.74;69.68
50430;BME280;36359;41.556;-8.418;2023-10-13T08:03:47;100299.78;;;23.82;69.85
50430;BME280;36359;41.556;-8.418;2023-10-13T08:06:22;100308.50;;;23.97;70.24
50430;BME280;36359;41.556;-8.418;2023-10-13T08:08:51;100304.66;;;23.68;72.12
50430;BME280;36359;41.556;-8.418;2023-10-13T08:11:22;100300.16;;;23.55;72.43
50430;BME280;36359;41.556;-8.418;2023-10-13T08:13:52;100317.97;;;23.78;71.59
50430;BME280;36359;41.556;-8.418;2023-10-13T08:16:29;100314.94;;;23.79;71.86
50430;BME280;36359;41.556;-8.418;2023-10-13T08:19:20;100310.78;;;23.89;73.93
50430;BME280;36359;41.556;-8.418;2023-10-13T08:21:56;100305.56;;;23.80;75.53
50430;BME280;36359;41.556;-8.418;2023-10-13T08:24:40;100299.78;;;23.82;73.28
50430;BME280;36359;41.556;-8.418;2023-10-13T08:27:08;100310.78;;;23.89;73.32
50430;BME280;36359;41.556;-8.418;2023-10-13T08:29:46;100284.66;;;23.66;76.94
50430;BME280;36359;41.556;-8.418;2023-10-13T08:32:23;100317.25;;;23.22;81.07
50430;BME280;36359;41.556;-8.418;2023-10-13T08:34:58;100322.19;;;23.02;79.05
50430;BME280;36359;41.556;-8.418;2023-10-13T08:37:29;100327.41;;;22.92;80.68
50430;BME280;36359;41.556;-8.418;2023-10-13T08:40:00;100337.78;;;22.09;89.32
50430;BME280;36359;41.556;-8.418;2023-10-13T08:42:36;100334.25;;;21.25;89.64
50430;BME280;36359;41.556;-8.418;2023-10-13T08:45:10;100315.38;;;20.71;93.45
50430;BME280;36359;41.556;-8.418;2023-10-13T08:47:56;100341.56;;;21.51;88.98
50430;BME280;36359;41.556;-8.418;2023-10-13T08:50:35;100335.53;;;21.68;88.47
50430;BME280;36359;41.556;-8.418;2023-10-13T08:53:21;100357.44;;;21.63;88.59
50430;BME280;36359;41.556;-8.418;2023-10-13T08:56:09;100324.69;;;21.98;84.68
50430;BME280;36359;41.556;-8.418;2023-10-13T08:58:45;100339.91;;;22.32;83.94
50430;BME280;36359;41.556;-8.418;2023-10-13T09:01:26;100345.69;;;22.93;79.75
50430;BME280;36359;41.556;-8.418;2023-10-13T09:04:06;100330.50;;;22.15;85.46
50430;BME280;36359;41.556;-8.418;2023-10-13T09:06:45;100359.06;;;20.74;93.56
50430;BME280;36359;41.556;-8.418;2023-10-13T09:12:26;100366.94;;;20.57;100.00
50430;BME280;36359;41.556;-8.418;2023-10-13T09:15:00;100346.81;;;20.30;100.00
50430;BME280;36359;41.556;-8.418;2023-10-13T09:17:39;100356.53;;;20.66;100.00
50430;BME280;36359;41.556;-8.418;2023-10-13T09:20:07;100336.41;;;21.17;97.79
50430;BME280;36359;41.556;-8.418;2023-10-13T09:22:56;100344.47;;;21.18;100.00
50430;BME280;36359;41.556;-8.418;2023-10-13T09:25:32;100303.59;;;21.02;99.07
50430;BME280;36359;41.556;-8.418;2023-10-13T09:28:14;100355.84;;;21.35;96.95
50430;BME280;36359;41.556;-8.418;2023-10-13T09:30:51;100335.28;;;21.38;99.41
50430;BME280;36359;41.556;-8.418;2023-10-13T09:33:25;100357.28;;;20.99;100.00
50430;BME280;36359;41.556;-8.418;2023-10-13T09:36:16;100346.53;;;20.64;100.00
50430;BME280;36359;41.556;-8.418;2023-10-13T09:38:43;100331.53;;;20.20;100.00
50430;BME280;36359;41.556;-8.418;2023-10-13T09:41:29;100312.69;;;19.84;100.00
50430;BME280;36359;41.556;-8.418;2023-10-13T09:43:58;100322.97;;;19.56;100.00
50430;BME280;36359;41.556;-8.418;2023-10-13T09:46:26;100313.25;;;19.53;100.00
50430;BME280;36359;41.556;-8.418;2023-10-13T09:49:12;100283.63;;;19.48;100.00
50430;BME280;36359;41.556;-8.418;2023-10-13T09:51:48;100239.56;;;19.28;100.00
50430;BME280;36359;41.556;-8.418;2023-10-13T09:54:21;100259.66;;;19.29;100.00
50430;BME280;36359;41.556;-8.418;2023-10-13T09:57:00;100280.63;;;19.43;100.00
50430;BME280;36359;41.556;-8.418;2023-10-13T09:59:35;100284.41;;;19.29;100.00
50430;BME280;36359;41.556;-8.418;2023-10-13T10:02:08;100299.28;;;19.41;100.00
50430;BME280;36359;41.556;-8.418;2023-10-13T10:04:37;100281.88;;;19.34;100.00
50430;BME280;36359;41.556;-8.418;2023-10-13T10:07:29;100305.63;;;19.55;100.00
50430;BME280;36359;41.556;-8.418;2023-10-13T10:10:00;100305.06;;;19.93;100.00
50430;BME280;36359;41.556;-8.418;2023-10-13T10:13:19;100315.41;;;20.37;100.00
50430;BME280;36359;41.556;-8.418;2023-10-13T10:15:29;100309.91;;;20.31;100.00
50430;BME280;36359;41.556;-8.418;2023-10-13T10:18:02;100324.72;;;20.50;100.00
50430;BME280;36359;41.556;-8.418;2023-10-13T10:20:34;100300.47;;;20.85;100.00
50430;BME280;36359;41.556;-8.418;2023-10-13T10:23:28;100302.56;;;21.73;100.00
50430;BME280;36359;41.556;-8.418;2023-10-13T10:26:12;100306.97;;;21.81;100.00
50430;BME280;36359;41.556;-8.418;2023-10-13T10:28:42;100303.38;;;21.80;100.00
50430;BME280;36359;41.556;-8.418;2023-10-13T10:31:13;100300.09;;;21.90;100.00
50430;BME280;36359;41.556;-8.418;2023-10-13T10:33:41;100302.66;;;21.91;100.00
50430;BME280;36359;41.556;-8.418;2023-10-13T10:36:07;100298.88;;;21.54;100.00
50430;BME280;36359;41.556;-8.418;2023-10-13T10:38:55;100298.38;;;21.25;100.00
50430;BME280;36359;41.556;-8.418;2023-10-13T10:41:29;100315.22;;;21.10;100.00
50430;BME280;36359;41.556;-8.418;2023-10-13T10:44:16;100328.31;;;21.67;100.00
50430;BME280;36359;41.556;-8.418;2023-10-13T10:46:42;100341.44;;;22.03;100.00
50430;BME280;36359;41.556;-8.418;2023-10-13T10:49:20;100337.50;;;22.61;95.26
50430;BME280;36359;41.556;-8.418;2023-10-13T10:51:59;100338.06;;;22.88;93.45
50430;BME280;36359;41.556;-8.418;2023-10-13T10:54:30;100329.63;;;23.20;90.98
50430;BME280;36359;41.556;-8.418;2023-10-13T10:57:00;100330.97;;;23.47;89.05
50430;BME280;36359;41.556;-8.418;2023-10-13T10:59:44;100331.94;;;23.71;86.80
50430;BME280;36359;41.556;-8.418;2023-10-13T11:02:10;100344.00;;;23.77;91.13
50430;BME280;36359;41.556;-8.418;2023-10-13T11:04:41;100337.56;;;23.76;87.35
50430;BME280;36359;41.556;-8.418;2023-10-13T11:07:23;100347.69;;;23.71;88.39
50430;BME280;36359;41.556;-8.418;2023-10-13T11:09:49;100346.78;;;23.89;86.41
50430;BME280;36359;41.556;-8.418;2023-10-13T11:12:19;100365.63;;;24.10;85.62
50430;BME280;36359;41.556;-8.418;2023-10-13T11:15:05;100377.31;;;24.12;84.90
50430;BME280;36359;41.556;-8.418;2023-10-13T11:17:59;100398.81;;;23.87;90.67
50430;BME280;36359;41.556;-8.418;2023-10-13T11:20:25;100401.00;;;23.96;88.19
50430;BME280;36359;41.556;-8.418;2023-10-13T11:22:59;100416.47;;;23.74;90.26
50430;BME280;36359;41.556;-8.418;2023-10-13T11:25:34;100409.06;;;23.86;87.63
50430;BME280;36359;41.556;-8.418;2023-10-13T11:30:43;100371.53;;;23.05;100.00
50430;BME280;36359;41.556;-8.418;2023-10-13T11:33:15;100343.75;;;22.31;100.00
50430;BME280;36359;41.556;-8.418;2023-10-13T11:35:44;100352.81;;;22.63;100.00
50430;BME280;36359;41.556;-8.418;2023-10-13T11:38:38;100363.63;;;22.21;100.00
50430;BME280;36359;41.556;-8.418;2023-10-13T11:41:07;100341.66;;;21.70;100.00
50430;BME280;36359;41.556;-8.418;2023-10-13T11:43:45;100328.13;;;21.62;100.00
50430;BME280;36359;41.556;-8.418;2023-10-13T11:46:20;100318.56;;;21.19;100.00
50430;BME280;36359;41.556;-8.418;2023-10-13T11:51:51;100323.16;;;20.87;100.00
50430;BME280;36359;41.556;-8.418;2023-10-13T11:54:22;100323.94;;;21.07;100.00
50430;BME280;36359;41.556;-8.418;2023-10-13T11:56:49;100324.13;;;21.13;100.00
50430;BME280;36359;41.556;-8.418;2023-10-13T11:59:15;100315.28;;;20.97;100.00
50430;BME280;36359;41.556;-8.418;2023-10-13T12:01:45;100304.09;;;20.79;100.00
50430;BME280;36359;41.556;-8.418;2023-10-13T12:04:29;100301.59;;;20.71;100.00
50430;BME280;36359;41.556;-8.418;2023-10-13T12:07:14;100305.97;;;20.85;100.00
50430;BME280;36359;41.556;-8.418;2023-10-13T12:09:44;100301.75;;;20.89;100.00
50430;BME280;36359;41.556;-8.418;2023-10-13T12:12:19;100302.34;;;20.91;100.00
50430;BME280;36359;41.556;-8.418;2023-10-13T12:14:44;100295.66;;;21.19;100.00
50430;BME280;36359;41.556;-8.418;2023-10-13T12:17:24;100303.94;;;21.19;100.00
50430;BME280;36359;41.556;-8.418;2023-10-13T12:20:03;100309.81;;;21.29;100.00
50430;BME280;36359;41.556;-8.418;2023-10-13T12:22:31;100311.69;;;21.35;100.00
50430;BME280;36359;41.556;-8.418;2023-10-13T12:25:10;100319.63;;;21.63;100.00
50430;BME280;36359;41.556;-8.418;2023-10-13T12:27:54;100317.44;;;21.72;100.00
50430;BME280;36359;41.556;-8.418;2023-10-13T12:30:26;100308.72;;;22.00;100.00
50430;BME280;36359;41.556;-8.418;2023-10-13T12:33:10;100307.97;;;22.18;100.00
50430;BME280;36359;41.556;-8.418;2023-10-13T12:35:36;100302.09;;;22.33;100.00
50430;BME280;36359;41.556;-8.418;2023-10-13T12:38:31;100295.97;;;22.49;100.00
50430;BME280;36359;41.556;-8.418;2023-10-13T12:41:06;100289.88;;;22.59;100.00
50430;BME280;36359;41.556;-8.418;2023-10-13T12:43:50;100283.91;;;22.80;100.00
50430;BME280;36359;41.556;-8.418;2023-10-13T12:46:34;100276.53;;;22.74;98.45
50430;BME280;36359;41.556;-8.418;2023-10-13T12:49:19;100272.53;;;22.88;97.74
50430;BME280;36359;41.556;-8.418;2023-10-13T12:52:14;100262.56;;;22.69;92.51
50430;BME280;36359;41.556;-8.418;2023-10-13T12:54:44;100261.81;;;22.62;93.24
50430;BME280;36359;41.556;-8.418;2023-10-13T12:57:24;100264.69;;;22.67;94.09
50430;BME280;36359;41.556;-8.418;2023-10-13T12:59:50;100266.34;;;22.56;94.46
50430;BME280;36359;41.556;-8.418;2023-10-13T13:02:23;100270.16;;;22.55;95.20
50430;BME280;36359;41.556;-8.418;2023-10-13T13:04:56;100261.31;;;22.47;95.07
50430;BME280;36359;41.556;-8.418;2023-10-13T13:07:38;100251.81;;;22.42;94.54
50430;BME280;36359;41.556;-8.418;2023-10-13T13:10:14;100260.56;;;22.39;94.66
50430;BME280;36359;41.556;-8.418;2023-10-13T13:12:41;100264.25;;;22.33;95.38
50430;BME280;36359;41.556;-8.418;2023-10-13T13:15:07;100284.59;;;22.39;94.61
50430;BME280;36359;41.556;-8.418;2023-10-13T13:17:37;100288.28;;;22.33;95.53
50430;BME280;36359;41.556;-8.418;2023-10-13T13:20:08;100294.19;;;22.36;96.31
50430;BME280;36359;41.556;-8.418;2023-10-13T13:22:38;100279.25;;;22.19;98.65
50430;BME280;36359;41.556;-8.418;2023-10-13T13:25:04;100292.88;;;22.14;97.69
50430;BME280;36359;41.556;-8.418;2023-10-13T13:27:34;100306.28;;;21.85;98.83
50430;BME280;36359;41.556;-8.418;2023-10-13T13:29:59;100318.72;;;22.01;99.05
50430;BME280;36359;41.556;-8.418;2023-10-13T13:32:26;100314.47;;;21.98;99.84